sensor_id;sensor_type;location;lat;lon;timestamp;temperature;humidity
3794;DHT22;1912;51.358;12.282;2023-01-28T04:45:59;0.20;1.00
3794;DHT22;1912;51.358;12.282;2023-01-28T04:48:25;0.20;1.00
3794;DHT22;1912;51.358;12.282;2023-01-28T04:50:51;0.20;1.00
3794;DHT22;1912;51.358;12.282;2023-01-28T04:53:16;0.10;1.00
3794;DHT22;1912;51.358;12.282;2023-01-28T04:55:43;0.10;1.00
3794;DHT22;1912;51.358;12.282;2023-01-28T04:58:09;0.10;1.00
3794;DHT22;1912;51.358;12.282;2023-01-28T05:00:35;0.10;1.00
3794;DHT22;1912;51.358;12.282;2023-01-28T05:03:00;0.00;1.00
3794;DHT22;1912;51.358;12.282;2023-01-28T05:05:26;0.00;1.00
3794;DHT22;1912;51.358;12.282;2023-01-28T05:07:53;0.00;1.00
3794;DHT22;1912;51.358;12.282;2023-01-28T05:10:20;0.00;1.00
3794;DHT22;1912;51.358;12.282;2023-01-28T05:12:46;0.00;1.00
3794;DHT22;1912;51.358;12.282;2023-01-28T05:15:14;-0.10;1.00
3794;DHT22;1912;51.358;12.282;2023-01-28T05:17:40;-0.10;1.00
3794;DHT22;1912;51.358;12.282;2023-01-28T05:20:08;-0.10;1.00
3794;DHT22;1912;51.358;12.282;2023-01-28T05:22:35;-0.10;1.00
3794;DHT22;1912;51.358;12.282;2023-01-28T05:25:00;-0.10;1.00
3794;DHT22;1912;51.358;12.282;2023-01-28T05:27:28;0.00;1.00
3794;DHT22;1912;51.358;12.282;2023-01-28T05:29:53;0.00;1.00
3794;DHT22;1912;51.358;12.282;2023-01-28T05:32:19;-0.10;1.00
3794;DHT22;1912;51.358;12.282;2023-01-28T05:34:45;-0.10;1.00
3794;DHT22;1912;51.358;12.282;2023-01-28T05:37:10;-0.10;1.00
3794;DHT22;1912;51.358;12.282;2023-01-28T05:39:36;-0.10;1.00
3794;DHT22;1912;51.358;12.282;2023-01-28T05:42:02;-0.10;1.00
3794;DHT22;1912;51.358;12.282;2023-01-28T05:44:27;-0.10;1.00
3794;DHT22;1912;51.358;12.282;2023-01-28T05:46:53;-0.10;1.00
3794;DHT22;1912;51.358;12.282;2023-01-28T05:49:19;-0.10;1.00
3794;DHT22;1912;51.358;12.282;2023-01-28T05:51:44;-0.10;1.00
3794;DHT22;1912;51.358;12.282;2023-01-28T05:54:12;-0.10;1.00
3794;DHT22;1912;51.358;12.282;2023-01-28T05:56:38;-0.10;1.00
3794;DHT22;1912;51.358;12.282;2023-01-28T05:59:04;-0.10;1.00
3794;DHT22;1912;51.358;12.282;2023-01-28T06:01:30;-0.10;1.00
3794;DHT22;1912;51.358;12.282;2023-01-28T06:03:56;-0.10;1.00
3794;DHT22;1912;51.358;12.282;2023-01-28T06:06:23;-0.10;1.00
3794;DHT22;1912;51.358;12.282;2023-01-28T06:08:49;-0.10;1.00
3794;DHT22;1912;51.358;12.282;2023-01-28T06:11:14;-0.10;1.00
3794;DHT22;1912;51.358;12.282;2023-01-28T06:13:40;-0.10;1.00
3794;DHT22;1912;51.358;12.282;2023-01-28T06:16:06;-0.10;1.00
3794;DHT22;1912;51.358;12.282;2023-01-28T06:18:32;-0.10;1.00
3794;DHT22;1912;51.358;12.282;2023-01-28T06:20:58;-0.10;1.00
3794;DHT22;1912;51.358;12.282;2023-01-28T06:23:24;-0.10;1.00
3794;DHT22;1912;51.358;12.282;2023-01-28T06:25:56;-0.10;1.00
3794;DHT22;1912;51.358;12.282;2023-01-28T06:28:22;0.00;1.00
3794;DHT22;1912;51.358;12.282;2023-01-28T06:30:51;-0.10;1.00
3794;DHT22;1912;51.358;12.282;2023-01-28T06:33:18;-0.10;1.00
3794;DHT22;1912;51.358;12.282;2023-01-28T06:35:44;-0.10;1.00
3794;DHT22;1912;51.358;12.282;2023-01-28T06:38:10;-0.10;1.00
3794;DHT22;1912;51.358;12.282;2023-01-28T06:40:37;-0.10;1.00
3794;DHT22;1912;51.358;12.282;2023-01-28T06:43:04;-0.10;1.00
3794;DHT22;1912;51.358;12.282;2023-01-28T06:45:30;-0.10;1.00
3794;DHT22;1912;51.358;12.282;2023-01-28T06:47:57;-0.10;1.00
3794;DHT22;1912;51.358;12.282;2023-01-28T06:50:22;-0.10;1.00
3794;DHT22;1912;51.358;12.282;2023-01-28T06:52:48;-0.10;1.00
3794;DHT22;1912;51.358;12.282;2023-01-28T06:55:14;-0.10;1.00
3794;DHT22;1912;51.358;12.282;2023-01-28T06:57:40;-0.10;1.00
3794;DHT22;1912;51.358;12.282;2023-01-28T07:00:08;-0.10;1.00
3794;DHT22;1912;51.358;12.282;2023-01-28T07:02:38;-0.10;1.00
3794;DHT22;1912;51.358;12.282;2023-01-28T07:05:05;-0.10;1.00
3794;DHT22;1912;51.358;12.282;2023-01-28T07:07:31;-0.10;1.00
3794;DHT22;1912;51.358;12.282;2023-01-28T07:09:57;-0.10;1.00
3794;DHT22;1912;51.358;12.282;2023-01-28T07:12:23;-0.10;1.00
3794;DHT22;1912;51.358;12.282;2023-01-28T07:14:49;-0.10;1.00
3794;DHT22;1912;51.358;12.282;2023-01-28T07:17:14;-0.20;1.00
3794;DHT22;1912;51.358;12.282;2023-01-28T07:19:40;-0.20;1.00
3794;DHT22;1912;51.358;12.282;2023-01-28T07:22:06;-0.20;1.00
3794;DHT22;1912;51.358;12.282;2023-01-28T07:24:31;-0.20;1.00
3794;DHT22;1912;51.358;12.282;2023-01-28T07:26:58;-0.20;1.00
3794;DHT22;1912;51.358;12.282;2023-01-28T07:29:23;-0.20;1.00
3794;DHT22;1912;51.358;12.282;2023-01-28T07:31:49;-0.20;1.00
3794;DHT22;1912;51.358;12.282;2023-01-28T07:34:15;-0.20;1.00
3794;DHT22;1912;51.358;12.282;2023-01-28T07:36:41;-0.10;1.00
3794;DHT22;1912;51.358;12.282;2023-01-28T07:39:06;-0.10;1.00
3794;DHT22;1912;51.358;12.282;2023-01-28T07:41:33;-0.20;1.00
3794;DHT22;1912;51.358;12.282;2023-01-28T07:43:58;-0.20;1.00
3794;DHT22;1912;51.358;12.282;2023-01-28T07:46:24;-0.20;1.00
3794;DHT22;1912;51.358;12.282;2023-01-28T07:48:49;-0.20;1.00
3794;DHT22;1912;51.358;12.282;2023-01-28T07:51:15;-0.20;1.00
3794;DHT22;1912;51.358;12.282;2023-01-28T07:53:41;-0.20;1.00
3794;DHT22;1912;51.358;12.282;2023-01-28T07:56:06;-0.20;1.00
3794;DHT22;1912;51.358;12.282;2023-01-28T07:58:32;-0.20;1.00
3794;DHT22;1912;51.358;12.282;2023-01-28T08:00:59;-0.20;1.00
3794;DHT22;1912;51.358;12.282;2023-01-28T08:03:26;-0.10;1.00
3794;DHT22;1912;51.358;12.282;2023-01-28T08:05:54;-0.10;1.00
3794;DHT22;1912;51.358;12.282;2023-01-28T08:08:24;-0.10;1.00
3794;DHT22;1912;51.358;12.282;2023-01-28T08:10:51;-0.10;1.00
3794;DHT22;1912;51.358;12.282;2023-01-28T08:13:18;-0.10;1.00
3794;DHT22;1912;51.358;12.282;2023-01-28T08:15:44;-0.20;1.00
3794;DHT22;1912;51.358;12.282;2023-01-28T08:18:13;-0.20;1.00
3794;DHT22;1912;51.358;12.282;2023-01-28T08:20:40;-0.20;1.00
3794;DHT22;1912;51.358;12.282;2023-01-28T08:23:13;-0.20;1.00
3794;DHT22;1912;51.358;12.282;2023-01-28T08:25:43;-0.20;1.00
3794;DHT22;1912;51.358;12.282;2023-01-28T08:28:10;-0.20;1.00
3794;DHT22;1912;51.358;12.282;2023-01-28T08:30:37;-0.10;1.00
3794;DHT22;1912;51.358;12.282;2023-01-28T08:33:04;-0.10;1.00
3794;DHT22;1912;51.358;12.282;2023-01-28T08:35:34;-0.20;1.00
3794;DHT22;1912;51.358;12.282;2023-01-28T08:38:01;-0.10;1.00
3794;DHT22;1912;51.358;12.282;2023-01-28T08:40:28;-0.10;1.00
3794;DHT22;1912;51.358;12.282;2023-01-28T08:42:54;-0.10;1.00
3794;DHT22;1912;51.358;12.282;2023-01-28T08:45:22;-0.10;1.00
3794;DHT22;1912;51.358;12.282;2023-01-28T08:47:58;-0.10;1.00
3794;DHT22;1912;51.358;12.282;2023-01-28T08:50:26;-0.10;1.00
3794;DHT22;1912;51.358;12.282;2023-01-28T08:53:02;-0.20;1.00
3794;DHT22;1912;51.358;12.282;2023-01-28T08:55:30;-0.20;1.00
3794;DHT22;1912;51.358;12.282;2023-01-28T08:57:56;-0.20;1.00
3794;DHT22;1912;51.358;12.282;2023-01-28T09:00:22;-0.10;1.00
3794;DHT22;1912;51.358;12.282;2023-01-28T09:02:51;-0.10;1.00
3794;DHT22;1912;51.358;12.282;2023-01-28T09:05:17;-0.10;1.00
3794;DHT22;1912;51.358;12.282;2023-01-28T09:07:43;-0.10;1.00
3794;DHT22;1912;51.358;12.282;2023-01-28T09:10:09;0.00;1.00
3794;DHT22;1912;51.358;12.282;2023-01-28T09:12:35;-0.10;1.00
3794;DHT22;1912;51.358;12.282;2023-01-28T09:15:02;-0.10;1.00
3794;DHT22;1912;51.358;12.282;2023-01-28T09:17:28;-0.10;1.00
3794;DHT22;1912;51.358;12.282;2023-01-28T09:19:53;0.00;1.00
3794;DHT22;1912;51.358;12.282;2023-01-28T09:22:19;0.00;1.00
3794;DHT22;1912;51.358;12.282;2023-01-28T09:24:45;0.00;1.00
3794;DHT22;1912;51.358;12.282;2023-01-28T09:27:11;0.00;1.00
3794;DHT22;1912;51.358;12.282;2023-01-28T09:29:37;0.00;1.00
3794;DHT22;1912;51.358;12.282;2023-01-28T09:32:04;-0.10;1.00
3794;DHT22;1912;51.358;12.282;2023-01-28T09:34:31;-0.10;1.00
3794;DHT22;1912;51.358;12.282;2023-01-28T09:36:57;0.00;1.00
3794;DHT22;1912;51.358;12.282;2023-01-28T09:39:23;0.00;1.00
3794;DHT22;1912;51.358;12.282;2023-01-28T09:47:40;0.00;1.00
3794;DHT22;1912;51.358;12.282;2023-01-28T09:53:21;-0.10;1.00
3794;DHT22;1912;51.358;12.282;2023-01-28T09:56:11;-0.10;1.00
3794;DHT22;1912;51.358;12.282;2023-01-28T09:58:49;0.00;1.00
3794;DHT22;1912;51.358;12.282;2023-01-28T10:01:32;-0.10;1.00
3794;DHT22;1912;51.358;12.282;2023-01-28T10:12:46;0.00;1.00
3794;DHT22;1912;51.358;12.282;2023-01-28T10:15:44;0.00;1.00
3794;DHT22;1912;51.358;12.282;2023-01-28T10:18:14;-0.10;1.00
3794;DHT22;1912;51.358;12.282;2023-01-28T10:20:48;0.00;1.00
3794;DHT22;1912;51.358;12.282;2023-01-28T10:26:20;0.10;1.00
3794;DHT22;1912;51.358;12.282;2023-01-28T10:28:53;0.10;1.00
3794;DHT22;1912;51.358;12.282;2023-01-28T10:31:22;0.10;1.00
3794;DHT22;1912;51.358;12.282;2023-01-28T10:33:48;0.10;1.00
3794;DHT22;1912;51.358;12.282;2023-01-28T10:36:14;0.10;1.00
3794;DHT22;1912;51.358;12.282;2023-01-28T10:38:42;0.10;1.00
3794;DHT22;1912;51.358;12.282;2023-01-28T10:41:10;0.10;1.00
3794;DHT22;1912;51.358;12.282;2023-01-28T10:43:44;0.10;1.00
3794;DHT22;1912;51.358;12.282;2023-01-28T10:46:14;0.20;1.00
3794;DHT22;1912;51.358;12.282;2023-01-28T10:49:05;0.20;1.00
3794;DHT22;1912;51.358;12.282;2023-01-28T10:51:38;0.20;1.00
3794;DHT22;1912;51.358;12.282;2023-01-28T10:54:22;0.20;1.00
3794;DHT22;1912;51.358;12.282;2023-01-28T10:56:58;0.30;1.00
3794;DHT22;1912;51.358;12.282;2023-01-28T10:59:28;0.30;1.00
3794;DHT22;1912;51.358;12.282;2023-01-28T11:02:19;0.30;1.00
3794;DHT22;1912;51.358;12.282;2023-01-28T11:04:45;0.30;1.00
3794;DHT22;1912;51.358;12.282;2023-01-28T11:07:19;0.30;1.00
3794;DHT22;1912;51.358;12.282;2023-01-28T11:09:48;0.30;1.00
3794;DHT22;1912;51.358;12.282;2023-01-28T11:12:23;0.30;1.00
3794;DHT22;1912;51.358;12.282;2023-01-28T11:15:03;0.40;1.00
3794;DHT22;1912;51.358;12.282;2023-01-28T11:17:34;0.50;1.00
3794;DHT22;1912;51.358;12.282;2023-01-28T11:20:27;0.50;1.00
3794;DHT22;1912;51.358;12.282;2023-01-28T11:22:54;0.50;1.00
3794;DHT22;1912;51.358;12.282;2023-01-28T11:25:31;0.50;1.00
3794;DHT22;1912;51.358;12.282;2023-01-28T11:28:00;0.50;1.00
3794;DHT22;1912;51.358;12.282;2023-01-28T11:30:32;0.50;1.00
3794;DHT22;1912;51.358;12.282;2023-01-28T11:35:31;0.70;1.00
3794;DHT22;1912;51.358;12.282;2023-01-28T11:37:58;0.80;1.00
3794;DHT22;1912;51.358;12.282;2023-01-28T11:40:26;0.80;1.00
3794;DHT22;1912;51.358;12.282;2023-01-28T11:42:53;0.80;1.00
3794;DHT22;1912;51.358;12.282;2023-01-28T11:45:59;0.90;1.00
3794;DHT22;1912;51.358;12.282;2023-01-28T11:51:47;0.70;1.00
3794;DHT22;1912;51.358;12.282;2023-01-28T12:00:51;0.70;1.00
3794;DHT22;1912;51.358;12.282;2023-01-28T12:04:11;0.70;1.00
3794;DHT22;1912;51.358;12.282;2023-01-28T12:09:54;0.70;1.00
3794;DHT22;1912;51.358;12.282;2023-01-28T12:12:42;0.70;1.00
3794;DHT22;1912;51.358;12.282;2023-01-28T12:27:25;0.70;1.00
3794;DHT22;1912;51.358;12.282;2023-01-28T12:33:59;0.50;1.00
3794;DHT22;1912;51.358;12.282;2023-01-28T12:37:05;0.60;1.00
3794;DHT22;1912;51.358;12.282;2023-01-28T12:40:03;0.50;1.00
3794;DHT22;1912;51.358;12.282;2023-01-28T12:42:35;0.50;1.00
3794;DHT22;1912;51.358;12.282;2023-01-28T12:45:25;0.40;1.00
3794;DHT22;1912;51.358;12.282;2023-01-28T12:50:50;0.40;1.00
3794;DHT22;1912;51.358;12.282;2023-01-28T12:53:21;0.50;1.00
3794;DHT22;1912;51.358;12.282;2023-01-28T12:55:57;0.50;1.00
3794;DHT22;1912;51.358;12.282;2023-01-28T13:04:41;0.70;1.00
3794;DHT22;1912;51.358;12.282;2023-01-28T13:07:20;0.80;1.00
3794;DHT22;1912;51.358;12.282;2023-01-28T13:09:59;0.80;1.00
3794;DHT22;1912;51.358;12.282;2023-01-28T13:12:31;0.60;1.00
3794;DHT22;1912;51.358;12.282;2023-01-28T13:14:59;0.50;1.00
3794;DHT22;1912;51.358;12.282;2023-01-28T13:17:30;0.40;1.00
3794;DHT22;1912;51.358;12.282;2023-01-28T13:19:57;0.50;1.00
3794;DHT22;1912;51.358;12.282;2023-01-28T13:24:57;0.50;1.00
3794;DHT22;1912;51.358;12.282;2023-01-28T13:27:36;0.40;1.00
3794;DHT22;1912;51.358;12.282;2023-01-28T13:30:22;0.40;1.00
3794;DHT22;1912;51.358;12.282;2023-01-28T13:33:06;0.50;1.00
3794;DHT22;1912;51.358;12.282;2023-01-28T13:35:53;0.60;1.00
3794;DHT22;1912;51.358;12.282;2023-01-28T13:38:20;0.50;1.00
3794;DHT22;1912;51.358;12.282;2023-01-28T13:40:57;0.50;1.00
3794;DHT22;1912;51.358;12.282;2023-01-28T13:46:10;0.50;1.00
3794;DHT22;1912;51.358;12.282;2023-01-28T13:48:47;0.50;1.00
3794;DHT22;1912;51.358;12.282;2023-01-28T13:51:36;0.60;1.00
3794;DHT22;1912;51.358;12.282;2023-01-28T13:54:09;0.60;1.00
3794;DHT22;1912;51.358;12.282;2023-01-28T14:02:28;0.70;1.00
3794;DHT22;1912;51.358;12.282;2023-01-28T14:11:07;0.80;1.00
3794;DHT22;1912;51.358;12.282;2023-01-28T14:17:34;0.80;1.00
3794;DHT22;1912;51.358;12.282;2023-01-28T14:22:48;0.70;1.00
3794;DHT22;1912;51.358;12.282;2023-01-28T14:25:19;0.70;1.00
3794;DHT22;1912;51.358;12.282;2023-01-28T14:27:52;0.70;1.00
3794;DHT22;1912;51.358;12.282;2023-01-28T14:30:24;0.70;1.00
3794;DHT22;1912;51.358;12.282;2023-01-28T14:32:54;0.80;1.00
3794;DHT22;1912;51.358;12.282;2023-01-28T14:35:32;0.80;1.00
3794;DHT22;1912;51.358;12.282;2023-01-28T14:37:59;0.70;1.00
3794;DHT22;1912;51.358;12.282;2023-01-28T14:40:33;0.60;1.00
3794;DHT22;1912;51.358;12.282;2023-01-28T14:43:06;0.60;1.00
3794;DHT22;1912;51.358;12.282;2023-01-28T14:45:47;0.70;1.00
3794;DHT22;1912;51.358;12.282;2023-01-28T14:49:24;0.70;1.00
3794;DHT22;1912;51.358;12.282;2023-01-28T14:52:31;0.70;1.00
3794;DHT22;1912;51.358;12.282;2023-01-28T14:55:33;0.70;1.00
3794;DHT22;1912;51.358;12.282;2023-01-28T14:58:18;0.70;1.00
3794;DHT22;1912;51.358;12.282;2023-01-28T15:00:57;0.60;1.00
3794;DHT22;1912;51.358;12.282;2023-01-28T15:03:25;0.60;1.00
3794;DHT22;1912;51.358;12.282;2023-01-28T15:06:10;0.60;1.00
3794;DHT22;1912;51.358;12.282;2023-01-28T15:08:38;0.60;1.00
3794;DHT22;1912;51.358;12.282;2023-01-28T15:11:07;0.70;1.00
3794;DHT22;1912;51.358;12.282;2023-01-28T15:13:43;0.70;1.00
3794;DHT22;1912;51.358;12.282;2023-01-28T15:16:22;0.70;1.00
3794;DHT22;1912;51.358;12.282;2023-01-28T15:18:49;0.70;1.00
3794;DHT22;1912;51.358;12.282;2023-01-28T15:21:23;0.70;1.00
3794;DHT22;1912;51.358;12.282;2023-01-28T15:23:59;0.70;1.00
3794;DHT22;1912;51.358;12.282;2023-01-28T15:26:31;0.70;1.00
3794;DHT22;1912;51.358;12.282;2023-01-28T15:28:57;0.70;1.00
3794;DHT22;1912;51.358;12.282;2023-01-28T15:36:42;0.50;1.00
3794;DHT22;1912;51.358;12.282;2023-01-28T15:39:18;0.40;1.00
3794;DHT22;1912;51.358;12.282;2023-01-28T15:42:03;0.40;1.00
3794;DHT22;1912;51.358;12.282;2023-01-28T15:44:36;0.40;1.00
3794;DHT22;1912;51.358;12.282;2023-01-28T15:47:19;0.30;1.00
3794;DHT22;1912;51.358;12.282;2023-01-28T15:49:53;0.30;1.00
3794;DHT22;1912;51.358;12.282;2023-01-28T15:52:21;0.30;1.00
3794;DHT22;1912;51.358;12.282;2023-01-28T15:54:54;0.30;1.00
3794;DHT22;1912;51.358;12.282;2023-01-28T15:57:24;0.20;1.00
3794;DHT22;1912;51.358;12.282;2023-01-28T16:02:30;0.10;1.00
3794;DHT22;1912;51.358;12.282;2023-01-28T16:04:57;0.00;1.00
3794;DHT22;1912;51.358;12.282;2023-01-28T16:07:29;0.00;1.00
3794;DHT22;1912;51.358;12.282;2023-01-28T16:09:58;-0.10;1.00
3794;DHT22;1912;51.358;12.282;2023-01-28T16:12:26;-0.20;1.00
3794;DHT22;1912;51.358;12.282;2023-01-28T16:15:00;-0.10;1.00
3794;DHT22;1912;51.358;12.282;2023-01-28T16:17:37;-0.20;1.00
3794;DHT22;1912;51.358;12.282;2023-01-28T16:20:07;-0.20;1.00
3794;DHT22;1912;51.358;12.282;2023-01-28T16:22:41;-0.20;1.00
3794;DHT22;1912;51.358;12.282;2023-01-28T16:27:45;-0.30;1.00
3794;DHT22;1912;51.358;12.282;2023-01-28T16:30:12;-0.20;1.00
3794;DHT22;1912;51.358;12.282;2023-01-28T16:32:38;-0.20;1.00
3794;DHT22;1912;51.358;12.282;2023-01-28T16:35:21;-0.20;1.00
3794;DHT22;1912;51.358;12.282;2023-01-28T16:37:49;-0.20;1.00
3794;DHT22;1912;51.358;12.282;2023-01-28T16:40:18;-0.10;1.00
3794;DHT22;1912;51.358;12.282;2023-01-28T16:42:45;-0.20;1.00
3794;DHT22;1912;51.358;12.282;2023-01-28T16:45:21;-0.10;1.00
3794;DHT22;1912;51.358;12.282;2023-01-28T16:47:48;-0.20;1.00
3794;DHT22;1912;51.358;12.282;2023-01-28T16:50:15;-0.10;1.00
3794;DHT22;1912;51.358;12.282;2023-01-28T16:52:44;0.00;1.00
3794;DHT22;1912;51.358;12.282;2023-01-28T16:55:16;-0.10;1.00
3794;DHT22;1912;51.358;12.282;2023-01-28T16:57:44;0.00;1.00
3794;DHT22;1912;51.358;12.282;2023-01-28T17:00:20;0.00;1.00
3794;DHT22;1912;51.358;12.282;2023-01-28T17:02:48;-0.10;1.00
3794;DHT22;1912;51.358;12.282;2023-01-28T17:05:14;0.00;1.00
3794;DHT22;1912;51.358;12.282;2023-01-28T17:07:41;0.00;1.00
3794;DHT22;1912;51.358;12.282;2023-01-28T17:10:07;0.00;1.00
3794;DHT22;1912;51.358;12.282;2023-01-28T17:12:33;0.00;1.00
3794;DHT22;1912;51.358;12.282;2023-01-28T17:14:59;0.00;1.00
3794;DHT22;1912;51.358;12.282;2023-01-28T17:17:25;0.00;1.00
3794;DHT22;1912;51.358;12.282;2023-01-28T17:19:51;0.00;1.00
3794;DHT22;1912;51.358;12.282;2023-01-28T17:22:16;0.00;1.00
3794;DHT22;1912;51.358;12.282;2023-01-28T17:24:42;0.00;1.00
3794;DHT22;1912;51.358;12.282;2023-01-28T17:27:07;0.00;1.00
3794;DHT22;1912;51.358;12.282;2023-01-28T17:29:34;0.00;1.00
3794;DHT22;1912;51.358;12.282;2023-01-28T17:32:00;-0.10;1.00
3794;DHT22;1912;51.358;12.282;2023-01-28T17:34:25;-0.10;1.00
3794;DHT22;1912;51.358;12.282;2023-01-28T17:36:51;-0.10;1.00
3794;DHT22;1912;51.358;12.282;2023-01-28T17:39:17;-0.10;1.00
3794;DHT22;1912;51.358;12.282;2023-01-28T17:41:42;-0.10;1.00
3794;DHT22;1912;51.358;12.282;2023-01-28T17:44:11;-0.10;1.00
3794;DHT22;1912;51.358;12.282;2023-01-28T17:46:39;-0.20;1.00
3794;DHT22;1912;51.358;12.282;2023-01-28T17:49:05;-0.20;1.00
3794;DHT22;1912;51.358;12.282;2023-01-28T17:51:31;-0.30;1.00
3794;DHT22;1912;51.358;12.282;2023-01-28T17:53:56;-0.20;1.00
3794;DHT22;1912;51.358;12.282;2023-01-28T17:56:26;-0.20;1.00
3794;DHT22;1912;51.358;12.282;2023-01-28T17:59:02;-0.20;1.00
3794;DHT22;1912;51.358;12.282;2023-01-28T18:01:29;-0.10;1.00
3794;DHT22;1912;51.358;12.282;2023-01-28T18:03:56;-0.10;1.00
3794;DHT22;1912;51.358;12.282;2023-01-28T18:06:23;-0.10;1.00
3794;DHT22;1912;51.358;12.282;2023-01-28T18:08:49;-0.10;1.00
3794;DHT22;1912;51.358;12.282;2023-01-28T18:11:17;-0.10;1.00
3794;DHT22;1912;51.358;12.282;2023-01-28T18:13:44;-0.20;1.00
3794;DHT22;1912;51.358;12.282;2023-01-28T18:16:13;-0.20;1.00
3794;DHT22;1912;51.358;12.282;2023-01-28T18:18:40;-0.20;1.00
3794;DHT22;1912;51.358;12.282;2023-01-28T18:21:07;-0.20;1.00
3794;DHT22;1912;51.358;12.282;2023-01-28T18:23:41;-0.20;1.00
3794;DHT22;1912;51.358;12.282;2023-01-28T18:26:07;-0.20;1.00
3794;DHT22;1912;51.358;12.282;2023-01-28T18:28:33;-0.10;1.00
3794;DHT22;1912;51.358;12.282;2023-01-28T18:31:06;-0.10;1.00
3794;DHT22;1912;51.358;12.282;2023-01-28T18:33:32;-0.20;1.00
3794;DHT22;1912;51.358;12.282;2023-01-28T18:35:58;-0.20;1.00
3794;DHT22;1912;51.358;12.282;2023-01-28T18:38:24;-0.10;1.00
3794;DHT22;1912;51.358;12.282;2023-01-28T18:40:54;-0.20;1.00
3794;DHT22;1912;51.358;12.282;2023-01-28T18:43:20;-0.10;1.00
3794;DHT22;1912;51.358;12.282;2023-01-28T18:45:46;-0.10;1.00
3794;DHT22;1912;51.358;12.282;2023-01-28T18:48:15;-0.20;1.00
3794;DHT22;1912;51.358;12.282;2023-01-28T18:50:48;-0.20;1.00
3794;DHT22;1912;51.358;12.282;2023-01-28T18:53:15;-0.20;1.00
3794;DHT22;1912;51.358;12.282;2023-01-28T18:55:41;-0.30;1.00
3794;DHT22;1912;51.358;12.282;2023-01-28T18:58:07;-0.20;1.00
3794;DHT22;1912;51.358;12.282;2023-01-28T19:00:32;-0.30;1.00
3794;DHT22;1912;51.358;12.282;2023-01-28T19:03:00;-0.30;1.00
3794;DHT22;1912;51.358;12.282;2023-01-28T19:05:26;-0.30;1.00
3794;DHT22;1912;51.358;12.282;2023-01-28T19:07:52;-0.30;1.00
3794;DHT22;1912;51.358;12.282;2023-01-28T19:10:18;-0.30;1.00
3794;DHT22;1912;51.358;12.282;2023-01-28T19:12:44;-0.30;1.00
3794;DHT22;1912;51.358;12.282;2023-01-28T19:15:10;-0.30;1.00
3794;DHT22;1912;51.358;12.282;2023-01-28T19:17:37;-0.20;1.00
3794;DHT22;1912;51.358;12.282;2023-01-28T19:20:02;-0.30;1.00
3794;DHT22;1912;51.358;12.282;2023-01-28T19:22:28;-0.30;1.00
3794;DHT22;1912;51.358;12.282;2023-01-28T19:24:54;-0.30;1.00
3794;DHT22;1912;51.358;12.282;2023-01-28T19:27:20;-0.30;1.00
3794;DHT22;1912;51.358;12.282;2023-01-28T19:29:45;-0.30;1.00
3794;DHT22;1912;51.358;12.282;2023-01-28T19:32:11;-0.40;1.00
3794;DHT22;1912;51.358;12.282;2023-01-28T19:34:37;-0.40;1.00
3794;DHT22;1912;51.358;12.282;2023-01-28T19:37:02;-0.40;1.00
3794;DHT22;1912;51.358;12.282;2023-01-28T19:39:28;-0.50;1.00
3794;DHT22;1912;51.358;12.282;2023-01-28T19:41:55;-0.50;1.00
3794;DHT22;1912;51.358;12.282;2023-01-28T19:44:21;-0.40;1.00
3794;DHT22;1912;51.358;12.282;2023-01-28T19:46:47;-0.40;1.00
3794;DHT22;1912;51.358;12.282;2023-01-28T19:49:12;-0.40;1.00
3794;DHT22;1912;51.358;12.282;2023-01-28T19:51:38;-0.50;1.00
3794;DHT22;1912;51.358;12.282;2023-01-28T19:54:04;-0.40;1.00
3794;DHT22;1912;51.358;12.282;2023-01-28T19:56:30;-0.50;1.00
3794;DHT22;1912;51.358;12.282;2023-01-28T19:58:55;-0.50;1.00
3794;DHT22;1912;51.358;12.282;2023-01-28T20:01:25;-0.50;1.00
3794;DHT22;1912;51.358;12.282;2023-01-28T20:03:55;-0.40;1.00
3794;DHT22;1912;51.358;12.282;2023-01-28T20:06:24;-0.50;1.00
3794;DHT22;1912;51.358;12.282;2023-01-28T20:08:53;-0.50;1.00
3794;DHT22;1912;51.358;12.282;2023-01-28T20:11:21;-0.50;1.00
3794;DHT22;1912;51.358;12.282;2023-01-28T20:13:48;-0.50;1.00
3794;DHT22;1912;51.358;12.282;2023-01-28T20:16:19;-0.60;1.00
3794;DHT22;1912;51.358;12.282;2023-01-28T20:18:52;-0.60;1.00
3794;DHT22;1912;51.358;12.282;2023-01-28T20:21:22;-0.60;1.00
3794;DHT22;1912;51.358;12.282;2023-01-28T20:23:50;-0.60;1.00
3794;DHT22;1912;51.358;12.282;2023-01-28T20:26:18;-0.60;1.00
3794;DHT22;1912;51.358;12.282;2023-01-28T20:28:48;-0.60;1.00
3794;DHT22;1912;51.358;12.282;2023-01-28T20:31:15;-0.60;1.00
3794;DHT22;1912;51.358;12.282;2023-01-28T20:33:41;-0.60;1.00
3794;DHT22;1912;51.358;12.282;2023-01-28T20:36:10;-0.60;1.00
3794;DHT22;1912;51.358;12.282;2023-01-28T20:38:43;-0.60;1.00
3794;DHT22;1912;51.358;12.282;2023-01-28T20:41:18;-0.70;1.00
3794;DHT22;1912;51.358;12.282;2023-01-28T20:43:46;-0.70;1.00
3794;DHT22;1912;51.358;12.282;2023-01-28T20:48:44;-0.70;1.00
3794;DHT22;1912;51.358;12.282;2023-01-28T20:51:22;-0.70;1.00
3794;DHT22;1912;51.358;12.282;2023-01-28T20:53:52;-0.60;1.00
3794;DHT22;1912;51.358;12.282;2023-01-28T20:56:21;-0.70;1.00
3794;DHT22;1912;51.358;12.282;2023-01-28T20:58:53;-0.70;1.00
3794;DHT22;1912;51.358;12.282;2023-01-28T21:01:26;-0.70;1.00
3794;DHT22;1912;51.358;12.282;2023-01-28T21:03:53;-0.80;1.00
3794;DHT22;1912;51.358;12.282;2023-01-28T21:06:20;-0.70;1.00
3794;DHT22;1912;51.358;12.282;2023-01-28T21:08:47;-0.70;1.00
3794;DHT22;1912;51.358;12.282;2023-01-28T21:11:13;-0.70;1.00
3794;DHT22;1912;51.358;12.282;2023-01-28T21:13:39;-0.70;1.00
3794;DHT22;1912;51.358;12.282;2023-01-28T21:16:05;-0.70;1.00
3794;DHT22;1912;51.358;12.282;2023-01-28T21:18:31;-0.80;1.00
3794;DHT22;1912;51.358;12.282;2023-01-28T21:21:06;-0.80;1.00
3794;DHT22;1912;51.358;12.282;2023-01-28T21:23:34;-0.80;1.00
3794;DHT22;1912;51.358;12.282;2023-01-28T21:26:01;-0.80;1.00
3794;DHT22;1912;51.358;12.282;2023-01-28T21:28:27;-0.80;1.00
3794;DHT22;1912;51.358;12.282;2023-01-28T21:30:53;-0.80;1.00
3794;DHT22;1912;51.358;12.282;2023-01-28T21:33:19;-0.80;1.00
3794;DHT22;1912;51.358;12.282;2023-01-28T21:35:44;-0.80;1.00
3794;DHT22;1912;51.358;12.282;2023-01-28T21:38:10;-0.80;1.00
3794;DHT22;1912;51.358;12.282;2023-01-28T21:40:36;-0.80;1.00
3794;DHT22;1912;51.358;12.282;2023-01-28T21:43:02;-0.90;1.00
3794;DHT22;1912;51.358;12.282;2023-01-28T21:45:28;-0.90;1.00
3794;DHT22;1912;51.358;12.282;2023-01-28T21:47:54;-0.80;1.00
